createdAt,value
2022-08-14T00:02:14.156Z,18.70
2022-08-14T00:04:45.035Z,18.70
2022-08-14T00:07:14.208Z,18.70
2022-08-14T00:09:55.900Z,18.80
2022-08-14T00:12:32.989Z,18.70
2022-08-14T00:15:25.009Z,18.70
2022-08-14T00:17:54.160Z,18.70
2022-08-14T00:20:36.004Z,18.70
2022-08-14T00:23:16.617Z,18.70
2022-08-14T00:25:58.669Z,18.70
2022-08-14T00:28:35.236Z,18.50
2022-08-14T00:31:06.743Z,18.30
2022-08-14T00:33:50.585Z,18.00
2022-08-14T00:36:37.435Z,17.80
2022-08-14T00:39:17.825Z,17.60
2022-08-14T00:41:47.476Z,17.50
2022-08-14T00:44:21.302Z,17.40
2022-08-14T00:47:03.382Z,17.40
2022-08-14T00:49:37.998Z,17.30
2022-08-14T00:52:17.851Z,17.20
2022-08-14T00:54:57.937Z,17.10
2022-08-14T00:57:31.457Z,17.00
2022-08-14T01:00:00.505Z,16.90
2022-08-14T01:02:31.711Z,16.80
2022-08-14T01:05:07.434Z,16.80
2022-08-14T01:07:38.871Z,16.70
2022-08-14T01:10:21.657Z,16.70
2022-08-14T01:12:50.216Z,16.60
2022-08-14T01:15:20.799Z,16.50
2022-08-14T01:18:17.149Z,16.60
2022-08-14T01:21:03.077Z,16.60
2022-08-14T01:23:46.511Z,16.60
2022-08-14T01:26:23.476Z,16.50
2022-08-14T01:29:06.542Z,16.50
2022-08-14T01:31:59.650Z,16.50
2022-08-14T01:35:19.346Z,16.50
2022-08-14T01:37:13.639Z,16.50
2022-08-14T01:39:44.164Z,16.50
2022-08-14T01:42:11.538Z,16.40
2022-08-14T01:44:59.230Z,16.40
2022-08-14T01:47:27.234Z,16.40
2022-08-14T01:50:01.946Z,16.30
2022-08-14T01:52:59.087Z,16.20
2022-08-14T01:55:31.620Z,16.10
2022-08-14T01:58:19.015Z,16.00
2022-08-14T02:00:56.903Z,16.00
2022-08-14T02:03:31.000Z,16.00
2022-08-14T02:06:03.786Z,16.00
2022-08-14T02:08:53.359Z,15.90
2022-08-14T02:11:25.800Z,15.90
2022-08-14T02:14:09.002Z,15.90
2022-08-14T02:16:49.605Z,15.80
2022-08-14T02:19:23.270Z,15.80
2022-08-14T02:21:56.526Z,15.80
2022-08-14T02:24:38.834Z,15.90
2022-08-14T02:28:24.027Z,16.20
2022-08-14T02:29:59.780Z,16.60
2022-08-14T02:32:30.296Z,16.80
2022-08-14T02:35:13.538Z,17.00
2022-08-14T02:37:47.657Z,17.10
2022-08-14T02:40:18.691Z,17.20
2022-08-14T02:42:55.180Z,17.30
2022-08-14T02:45:32.946Z,17.40
2022-08-14T02:48:06.960Z,17.40
2022-08-14T02:50:38.922Z,17.50
2022-08-14T02:53:06.539Z,17.60
2022-08-14T02:55:40.030Z,17.70
2022-08-14T02:58:07.866Z,17.70
2022-08-14T03:00:39.782Z,17.80
2022-08-14T03:03:08.304Z,17.80
2022-08-14T03:05:37.181Z,17.80
2022-08-14T03:08:16.117Z,17.70
2022-08-14T03:10:48.881Z,17.70
2022-08-14T03:13:21.621Z,17.70
2022-08-14T03:15:54.983Z,17.70
2022-08-14T03:18:31.648Z,17.70
2022-08-14T03:21:07.498Z,17.70
2022-08-14T03:23:38.094Z,17.70
2022-08-14T03:26:30.371Z,17.60
2022-08-14T03:29:01.171Z,17.60
2022-08-14T03:31:30.151Z,17.60
2022-08-14T03:34:00.018Z,17.60
2022-08-14T03:37:38.906Z,17.60
2022-08-14T03:39:22.717Z,17.60
2022-08-14T03:41:55.730Z,17.60
2022-08-14T03:45:18.537Z,17.60
2022-08-14T03:47:12.121Z,17.70
2022-08-14T03:49:42.521Z,17.70
2022-08-14T03:52:28.121Z,17.60
2022-08-14T03:54:59.095Z,17.60
2022-08-14T03:57:26.958Z,17.60
2022-08-14T03:59:54.318Z,17.50
2022-08-14T04:02:32.802Z,17.50
2022-08-14T04:05:12.786Z,17.40
2022-08-14T04:07:49.867Z,17.40
2022-08-14T04:10:32.312Z,17.30
2022-08-14T04:13:05.980Z,17.30
2022-08-14T04:15:56.436Z,17.30
2022-08-14T04:18:21.115Z,17.20
2022-08-14T04:20:54.673Z,17.20
2022-08-14T04:23:29.936Z,17.20
2022-08-14T04:26:14.480Z,17.20
2022-08-14T04:29:01.945Z,17.10
2022-08-14T04:32:59.157Z,17.20
2022-08-14T04:34:24.183Z,17.20
2022-08-14T04:37:22.359Z,17.20
2022-08-14T04:40:15.166Z,17.20
2022-08-14T04:43:01.946Z,17.30
2022-08-14T04:45:38.603Z,17.30
2022-08-14T04:48:12.898Z,17.30
2022-08-14T04:50:53.932Z,17.40
2022-08-14T04:53:35.224Z,17.40
2022-08-14T04:56:06.148Z,17.50
2022-08-14T04:58:39.232Z,17.50
2022-08-14T05:01:13.053Z,17.60
2022-08-14T05:03:47.685Z,17.70
2022-08-14T05:06:35.146Z,17.70
2022-08-14T05:09:01.621Z,17.70
2022-08-14T05:11:33.367Z,17.80
2022-08-14T05:14:33.804Z,17.90
2022-08-14T05:16:52.097Z,18.00
2022-08-14T05:19:27.107Z,18.00
2022-08-14T05:22:17.632Z,18.10
2022-08-14T05:24:50.579Z,18.20
2022-08-14T05:27:22.801Z,18.30
2022-08-14T05:29:55.310Z,18.40
2022-08-14T05:32:27.525Z,18.50
2022-08-14T05:34:58.640Z,18.60
2022-08-14T05:37:29.764Z,18.70
2022-08-14T05:39:59.525Z,18.90
2022-08-14T05:42:29.297Z,19.20
2022-08-14T05:44:59.351Z,19.30
2022-08-14T05:47:28.770Z,19.50
2022-08-14T05:50:01.748Z,19.60
2022-08-14T05:52:39.233Z,19.70
2022-08-14T05:55:11.950Z,19.80
2022-08-14T05:57:54.769Z,19.90
2022-08-14T06:00:39.689Z,20.00
2022-08-14T06:03:16.297Z,20.10
2022-08-14T06:05:47.686Z,20.20
2022-08-14T06:08:36.795Z,20.30
2022-08-14T06:11:09.798Z,20.40
2022-08-14T06:13:45.121Z,20.60
2022-08-14T06:16:17.657Z,20.70
2022-08-14T06:18:52.740Z,20.80
2022-08-14T06:21:23.552Z,20.90
2022-08-14T06:23:51.661Z,20.90
2022-08-14T06:26:20.453Z,20.90
2022-08-14T06:28:51.889Z,21.00
2022-08-14T06:31:21.463Z,21.00
2022-08-14T06:35:03.055Z,21.00
2022-08-14T06:36:38.352Z,21.00
2022-08-14T06:39:08.163Z,21.00
2022-08-14T06:41:58.355Z,21.10
2022-08-14T06:44:32.251Z,21.30
2022-08-14T06:47:02.548Z,21.50
2022-08-14T06:49:30.489Z,21.70
2022-08-14T06:51:57.963Z,21.90
2022-08-14T06:54:31.323Z,22.00
2022-08-14T06:56:58.837Z,22.20
2022-08-14T06:59:25.775Z,22.40
2022-08-14T07:02:13.310Z,22.50
2022-08-14T07:05:05.550Z,22.50
2022-08-14T07:07:41.230Z,22.70
2022-08-14T07:10:17.022Z,22.80
2022-08-14T07:12:56.435Z,22.90
2022-08-14T07:15:29.743Z,23.20
2022-08-14T07:18:01.005Z,23.40
2022-08-14T07:20:31.291Z,23.60
2022-08-14T07:23:10.729Z,23.90
2022-08-14T07:25:49.995Z,24.40
2022-08-14T07:28:43.091Z,24.60
2022-08-14T07:31:12.664Z,24.80
2022-08-14T07:33:46.021Z,25.00
2022-08-14T07:36:27.801Z,25.20
2022-08-14T07:39:12.001Z,25.40
2022-08-14T07:41:42.224Z,25.50
2022-08-14T07:44:29.687Z,25.70
2022-08-14T07:46:58.310Z,25.90
2022-08-14T07:49:27.663Z,26.10
2022-08-14T07:51:55.291Z,26.20
2022-08-14T07:54:30.488Z,26.40
2022-08-14T07:57:11.902Z,26.70
2022-08-14T07:59:43.448Z,26.90
2022-08-14T08:04:16.460Z,27.30
2022-08-14T08:06:45.664Z,27.40
2022-08-14T08:09:13.032Z,28.00
2022-08-14T08:11:42.583Z,28.00
2022-08-14T08:14:17.320Z,28.30
2022-08-14T08:16:51.027Z,28.70
2022-08-14T08:19:19.016Z,29.00
2022-08-14T08:21:47.045Z,29.60
2022-08-14T08:24:20.128Z,29.50
2022-08-14T08:26:50.582Z,29.40
2022-08-14T08:29:28.439Z,29.70
2022-08-14T08:32:01.364Z,29.60
2022-08-14T08:34:45.956Z,29.40
2022-08-14T08:37:15.174Z,29.70
2022-08-14T08:40:03.179Z,29.90
2022-08-14T08:42:41.272Z,30.10
2022-08-14T08:45:17.194Z,29.60
2022-08-14T08:47:46.563Z,29.40
2022-08-14T08:53:08.099Z,29.20
2022-08-14T08:55:45.526Z,29.20
2022-08-14T08:58:20.212Z,29.30
2022-08-14T09:00:57.683Z,30.00
2022-08-14T09:03:28.930Z,30.60
2022-08-14T09:06:23.278Z,31.00
2022-08-14T09:08:52.930Z,30.90
2022-08-14T09:11:23.125Z,30.70
2022-08-14T09:13:53.983Z,30.70
2022-08-14T09:16:27.841Z,30.60
2022-08-14T09:18:55.807Z,30.80
2022-08-14T09:21:24.297Z,30.70
2022-08-14T09:24:26.590Z,30.80
2022-08-14T09:26:48.902Z,31.30
2022-08-14T09:29:18.155Z,32.30
2022-08-14T09:32:00.104Z,33.00
2022-08-14T09:35:17.426Z,32.60
2022-08-14T09:38:42.695Z,32.00
2022-08-14T09:42:20.722Z,31.70
2022-08-14T09:45:30.247Z,30.50
2022-08-14T09:47:58.638Z,31.00
2022-08-14T09:50:50.502Z,31.00
2022-08-14T09:54:18.139Z,32.80
2022-08-14T09:56:51.698Z,33.20
2022-08-14T09:59:33.487Z,31.90
2022-08-14T10:02:03.232Z,32.60
2022-08-14T10:04:35.792Z,33.10
2022-08-14T10:07:09.923Z,33.80
2022-08-14T10:09:59.915Z,33.80
2022-08-14T10:12:45.804Z,33.00
2022-08-14T10:15:25.023Z,32.50
2022-08-14T10:18:18.354Z,34.70
2022-08-14T10:21:00.710Z,35.50
2022-08-14T10:23:44.358Z,33.60
2022-08-14T10:26:22.830Z,31.60
2022-08-14T10:29:18.785Z,31.60
2022-08-14T10:31:45.044Z,31.80
2022-08-14T10:34:20.867Z,31.30
2022-08-14T10:37:10.469Z,30.30
2022-08-14T10:40:01.244Z,30.30
2022-08-14T10:42:43.749Z,31.30
2022-08-14T10:45:25.677Z,33.00
2022-08-14T10:48:07.897Z,34.00
2022-08-14T10:50:50.295Z,35.30
2022-08-14T10:53:39.852Z,35.10
2022-08-14T10:56:22.025Z,35.50
2022-08-14T10:59:08.135Z,35.50
2022-08-14T11:01:41.708Z,36.70
2022-08-14T11:04:28.248Z,35.90
2022-08-14T11:06:58.343Z,32.90
2022-08-14T11:09:26.642Z,31.60
2022-08-14T11:12:34.294Z,31.80
2022-08-14T11:15:02.611Z,30.80
2022-08-14T11:17:32.998Z,31.00
2022-08-14T11:20:04.445Z,30.20
2022-08-14T11:22:56.651Z,29.70
2022-08-14T11:25:23.912Z,29.50
2022-08-14T11:27:57.036Z,30.30
2022-08-14T11:30:49.016Z,31.70
2022-08-14T11:33:23.020Z,32.00
2022-08-14T11:35:51.492Z,31.00
2022-08-14T11:38:21.318Z,32.60
2022-08-14T11:40:49.070Z,34.70
2022-08-14T11:43:16.500Z,36.20
2022-08-14T11:45:52.101Z,37.40
2022-08-14T11:49:02.432Z,37.70
2022-08-14T11:51:23.946Z,35.60
2022-08-14T11:54:06.092Z,33.00
2022-08-14T11:56:42.560Z,31.80
2022-08-14T11:59:19.879Z,31.90
2022-08-14T12:01:54.826Z,33.80
2022-08-14T12:04:32.163Z,36.30
2022-08-14T12:07:01.612Z,36.80
2022-08-14T12:09:37.374Z,34.80
2022-08-14T12:12:35.759Z,34.90
2022-08-14T12:15:06.897Z,36.60
2022-08-14T12:17:49.632Z,36.60
2022-08-14T12:20:29.979Z,37.50
2022-08-14T12:23:02.543Z,37.30
2022-08-14T12:25:34.977Z,39.20
2022-08-14T12:28:26.690Z,39.20
2022-08-14T12:30:53.809Z,39.10
2022-08-14T12:33:33.525Z,39.90
2022-08-14T12:36:08.626Z,41.10
2022-08-14T12:38:45.490Z,41.20
2022-08-14T12:41:21.709Z,40.40
2022-08-14T12:43:59.697Z,38.60
2022-08-14T12:46:43.497Z,37.20
2022-08-14T12:49:17.856Z,37.70
2022-08-14T12:51:59.400Z,38.40
2022-08-14T12:54:29.178Z,37.60
2022-08-14T12:57:19.791Z,37.40
2022-08-14T12:59:49.591Z,35.40
2022-08-14T13:02:26.658Z,35.00
2022-08-14T13:04:56.840Z,33.90
2022-08-14T13:07:32.604Z,32.70
2022-08-14T13:10:46.157Z,34.70
2022-08-14T13:13:13.096Z,37.20
2022-08-14T13:15:47.407Z,39.00
2022-08-14T13:18:17.263Z,39.30
2022-08-14T13:20:49.484Z,39.50
2022-08-14T13:23:19.639Z,39.80
2022-08-14T13:25:58.934Z,40.20
2022-08-14T13:28:33.726Z,40.90
2022-08-14T13:31:11.015Z,40.00
2022-08-14T13:33:41.992Z,38.10
2022-08-14T13:36:18.236Z,35.90
2022-08-14T13:38:53.712Z,34.50
2022-08-14T13:41:28.020Z,34.30
2022-08-14T13:44:03.275Z,34.60
2022-08-14T13:46:30.331Z,34.10
2022-08-14T13:49:00.205Z,33.80
2022-08-14T13:51:36.716Z,32.80
2022-08-14T13:54:10.486Z,31.80
2022-08-14T13:56:42.319Z,32.30
2022-08-14T13:59:10.835Z,34.60
2022-08-14T14:01:43.269Z,35.90
2022-08-14T14:04:19.840Z,34.50
2022-08-14T14:06:51.856Z,35.80
2022-08-14T14:09:32.562Z,35.70
2022-08-14T14:12:49.021Z,33.50
2022-08-14T14:15:04.916Z,33.70
2022-08-14T14:17:34.706Z,36.30
2022-08-14T14:20:03.079Z,38.20
2022-08-14T14:22:35.407Z,37.90
2022-08-14T14:25:21.962Z,37.90
2022-08-14T14:27:53.405Z,37.40
2022-08-14T14:30:46.045Z,36.10
2022-08-14T14:33:42.499Z,36.70
2022-08-14T14:36:04.857Z,38.50
2022-08-14T14:38:42.048Z,39.80
2022-08-14T14:41:17.313Z,40.40
2022-08-14T14:43:51.832Z,40.60
2022-08-14T14:46:22.060Z,40.40
2022-08-14T14:49:14.108Z,39.10
2022-08-14T14:51:51.537Z,37.10
2022-08-14T14:54:30.833Z,34.70
2022-08-14T14:57:09.224Z,33.20
2022-08-14T14:59:37.700Z,32.50
2022-08-14T15:02:07.828Z,32.50
2022-08-14T15:04:38.871Z,32.10
2022-08-14T15:07:12.337Z,32.90
2022-08-14T15:09:40.136Z,34.20
2022-08-14T15:12:28.075Z,35.20
2022-08-14T15:14:58.148Z,36.50
2022-08-14T15:17:41.069Z,36.20
2022-08-14T15:20:17.411Z,35.60
2022-08-14T15:22:58.430Z,34.90
2022-08-14T15:25:31.864Z,34.50
2022-08-14T15:28:01.408Z,34.10
2022-08-14T15:30:32.347Z,34.40
2022-08-14T15:33:00.512Z,35.10
2022-08-14T15:35:28.076Z,35.70
2022-08-14T15:38:07.757Z,35.60
2022-08-14T15:40:41.441Z,35.60
2022-08-14T15:43:12.999Z,36.10
2022-08-14T15:45:41.494Z,36.00
2022-08-14T15:48:14.010Z,35.60
2022-08-14T15:50:50.890Z,35.20
2022-08-14T15:53:24.065Z,34.90
2022-08-14T15:55:54.437Z,34.50
2022-08-14T15:58:26.773Z,34.10
2022-08-14T16:01:19.362Z,34.10
2022-08-14T16:03:58.329Z,34.20
2022-08-14T16:06:31.223Z,34.00
2022-08-14T16:09:07.736Z,34.30
2022-08-14T16:11:38.153Z,34.50
2022-08-14T16:14:14.502Z,34.30
2022-08-14T16:17:00.025Z,34.70
2022-08-14T16:19:43.962Z,34.40
2022-08-14T16:23:10.072Z,33.90
2022-08-14T16:25:05.051Z,33.50
2022-08-14T16:27:40.613Z,33.40
2022-08-14T16:30:20.478Z,33.70
2022-08-14T16:33:02.144Z,33.50
2022-08-14T16:35:43.186Z,33.00
2022-08-14T16:38:45.535Z,32.70
2022-08-14T16:41:27.030Z,32.20
2022-08-14T16:44:31.398Z,31.80
2022-08-14T16:47:07.478Z,31.70
2022-08-14T16:50:02.908Z,31.50
2022-08-14T16:52:26.314Z,31.40
2022-08-14T16:55:13.861Z,31.20
2022-08-14T16:57:58.599Z,31.20
2022-08-14T17:00:52.078Z,31.20
2022-08-14T17:03:19.426Z,31.30
2022-08-14T17:05:49.182Z,31.30
2022-08-14T17:08:32.996Z,31.00
2022-08-14T17:11:10.116Z,30.70
2022-08-14T17:14:00.026Z,30.50
2022-08-14T17:16:37.444Z,30.30
2022-08-14T17:19:13.445Z,30.10
2022-08-14T17:21:47.290Z,30.10
2022-08-14T17:24:56.743Z,29.90
2022-08-14T17:27:09.396Z,29.60
2022-08-14T17:29:56.359Z,29.50
2022-08-14T17:35:58.677Z,28.80
2022-08-14T17:41:23.276Z,27.90
2022-08-14T17:43:55.225Z,27.50
2022-08-14T17:46:50.230Z,27.30
2022-08-14T17:49:27.078Z,27.10
2022-08-14T17:52:17.449Z,26.90
2022-08-14T17:54:52.867Z,26.80
2022-08-14T17:57:29.399Z,26.70
2022-08-14T18:00:03.679Z,26.60
2022-08-14T18:02:36.515Z,26.40
2022-08-14T18:05:09.979Z,26.30
2022-08-14T18:07:51.003Z,26.20
2022-08-14T18:10:53.084Z,26.00
2022-08-14T18:13:19.575Z,25.90
2022-08-14T18:16:07.191Z,25.80
2022-08-14T18:18:49.646Z,25.60
2022-08-14T18:21:23.757Z,25.60
2022-08-14T18:24:05.128Z,25.40
2022-08-14T18:27:23.141Z,25.30
2022-08-14T18:29:57.917Z,25.10
2022-08-14T18:32:27.773Z,24.90
2022-08-14T18:35:58.241Z,24.80
2022-08-14T18:38:26.439Z,24.70
2022-08-14T18:41:36.935Z,24.50
2022-08-14T18:44:10.457Z,24.40
2022-08-14T18:47:14.725Z,24.30
2022-08-14T18:49:57.960Z,24.20
2022-08-14T18:52:39.577Z,24.10
2022-08-14T18:55:16.177Z,24.10
2022-08-14T18:57:59.176Z,24.00
2022-08-14T19:00:33.449Z,24.00
2022-08-14T19:03:34.047Z,24.00
2022-08-14T19:06:09.913Z,23.90
2022-08-14T19:08:43.588Z,23.80
2022-08-14T19:11:36.856Z,23.70
2022-08-14T19:14:06.620Z,23.60
2022-08-14T19:16:37.773Z,23.50
2022-08-14T19:19:13.853Z,23.50
2022-08-14T19:21:57.004Z,23.40
2022-08-14T19:24:44.235Z,23.40
2022-08-14T19:27:26.140Z,23.40
2022-08-14T19:30:19.991Z,23.30
2022-08-14T19:32:55.890Z,23.20
2022-08-14T19:35:24.742Z,23.20
2022-08-14T19:38:32.399Z,23.20
2022-08-14T19:41:01.561Z,23.20
2022-08-14T19:43:55.452Z,23.10
2022-08-14T19:46:37.949Z,23.10
2022-08-14T19:49:08.632Z,23.10
2022-08-14T19:51:48.965Z,23.00
2022-08-14T19:54:16.138Z,23.00
2022-08-14T19:56:46.098Z,23.00
2022-08-14T19:59:21.526Z,22.90
2022-08-14T20:01:54.118Z,22.90
2022-08-14T20:04:47.715Z,22.90
2022-08-14T20:08:00.358Z,22.80
2022-08-14T20:11:12.482Z,22.70
2022-08-14T20:13:32.720Z,22.70
2022-08-14T20:16:12.060Z,22.80
2022-08-14T20:18:51.567Z,22.70
2022-08-14T20:21:21.291Z,22.70
2022-08-14T20:23:50.052Z,22.70
2022-08-14T20:26:31.494Z,22.70
2022-08-14T20:29:04.371Z,22.70
2022-08-14T20:31:37.539Z,22.70
2022-08-14T20:34:19.334Z,22.70
2022-08-14T20:37:19.813Z,22.70
2022-08-14T20:39:54.334Z,22.70
2022-08-14T20:42:43.819Z,22.60
2022-08-14T20:45:21.415Z,22.60
2022-08-14T20:48:01.216Z,22.50
2022-08-14T20:50:30.303Z,22.50
2022-08-14T20:53:05.884Z,22.50
2022-08-14T20:55:41.389Z,22.50
2022-08-14T20:58:38.478Z,22.60
2022-08-14T21:01:33.488Z,22.60
2022-08-14T21:04:05.070Z,22.70
2022-08-14T21:07:22.751Z,22.70
2022-08-14T21:10:03.291Z,22.80
2022-08-14T21:12:35.068Z,22.90
2022-08-14T21:15:11.219Z,22.80
2022-08-14T21:17:47.286Z,22.90
2022-08-14T21:20:25.204Z,22.90
2022-08-14T21:22:56.503Z,22.90
2022-08-14T21:25:24.246Z,22.80
2022-08-14T21:27:56.792Z,22.80
2022-08-14T21:30:51.849Z,22.70
2022-08-14T21:33:12.341Z,22.60
2022-08-14T21:35:45.529Z,22.50
2022-08-14T21:38:17.918Z,22.40
2022-08-14T21:40:52.396Z,22.40
2022-08-14T21:43:26.022Z,22.30
2022-08-14T21:45:58.154Z,22.30
2022-08-14T21:48:32.468Z,22.30
2022-08-14T21:51:54.147Z,22.30
2022-08-14T21:53:59.643Z,22.20
2022-08-14T21:56:38.360Z,22.10
2022-08-14T21:59:18.373Z,22.10
2022-08-14T22:02:01.402Z,22.10
2022-08-14T22:04:40.433Z,22.00
2022-08-14T22:07:16.886Z,22.00
2022-08-14T22:09:55.148Z,22.00
2022-08-14T22:12:57.596Z,22.00
2022-08-14T22:15:17.090Z,22.00
2022-08-14T22:17:50.985Z,22.00
2022-08-14T22:20:21.459Z,21.90
2022-08-14T22:22:48.508Z,21.80
2022-08-14T22:25:33.969Z,21.80
2022-08-14T22:28:07.330Z,21.70
2022-08-14T22:30:38.064Z,21.70
2022-08-14T22:33:10.044Z,21.60
2022-08-14T22:35:41.623Z,21.60
2022-08-14T22:38:35.503Z,21.60
2022-08-14T22:41:25.022Z,21.50
2022-08-14T22:43:45.408Z,21.40
2022-08-14T22:46:20.543Z,21.30
2022-08-14T22:48:49.165Z,21.30
2022-08-14T22:51:21.628Z,21.30
2022-08-14T22:53:53.938Z,21.20
2022-08-14T22:56:29.236Z,21.20
2022-08-14T22:59:02.555Z,21.20
2022-08-14T23:01:56.025Z,21.10
2022-08-14T23:04:34.740Z,20.80
2022-08-14T23:07:22.529Z,20.60
2022-08-14T23:10:31.602Z,20.40
2022-08-14T23:12:54.367Z,20.10
2022-08-14T23:15:29.025Z,20.00
2022-08-14T23:17:58.129Z,20.00
2022-08-14T23:20:29.246Z,19.80
2022-08-14T23:22:57.832Z,19.70
2022-08-14T23:25:57.238Z,19.60
2022-08-14T23:28:34.820Z,19.50
2022-08-14T23:31:15.417Z,19.50
2022-08-14T23:34:06.596Z,19.30
2022-08-14T23:36:52.948Z,19.30
2022-08-14T23:39:33.167Z,19.30
2022-08-14T23:42:09.149Z,19.30
2022-08-14T23:44:38.999Z,19.30
2022-08-14T23:47:10.565Z,19.30
2022-08-14T23:49:56.754Z,19.20
2022-08-14T23:52:55.965Z,19.20
2022-08-14T23:55:16.447Z,19.20
2022-08-14T23:57:57.918Z,19.30
